sensor_id;sensor_type;location;lat;lon;timestamp;P1;durP1;ratioP1;P2;durP2;ratioP2
359;SDS011;168;48.872;9.226;2023-04-25T00:00:04;3.10;;;2.80;;
359;SDS011;168;48.872;9.226;2023-04-25T00:02:35;6.50;;;3.33;;
359;SDS011;168;48.872;9.226;2023-04-25T00:05:03;3.87;;;2.90;;
359;SDS011;168;48.872;9.226;2023-04-25T00:07:31;2.90;;;2.70;;
359;SDS011;168;48.872;9.226;2023-04-25T00:09:58;3.47;;;3.17;;
359;SDS011;168;48.872;9.226;2023-04-25T00:12:26;2.50;;;2.30;;
359;SDS011;168;48.872;9.226;2023-04-25T00:14:55;4.50;;;3.10;;
359;SDS011;168;48.872;9.226;2023-04-25T00:17:23;3.27;;;2.97;;
359;SDS011;168;48.872;9.226;2023-04-25T00:19:52;2.93;;;2.53;;
359;SDS011;168;48.872;9.226;2023-04-25T00:22:20;3.00;;;2.80;;
359;SDS011;168;48.872;9.226;2023-04-25T00:24:48;3.30;;;3.00;;
359;SDS011;168;48.872;9.226;2023-04-25T00:27:16;3.20;;;3.00;;
359;SDS011;168;48.872;9.226;2023-04-25T00:29:43;3.10;;;2.90;;
359;SDS011;168;48.872;9.226;2023-04-25T00:32:10;2.90;;;2.70;;
359;SDS011;168;48.872;9.226;2023-04-25T00:34:38;3.57;;;3.27;;
359;SDS011;168;48.872;9.226;2023-04-25T00:37:07;3.10;;;2.90;;
359;SDS011;168;48.872;9.226;2023-04-25T00:39:36;3.47;;;3.17;;
359;SDS011;168;48.872;9.226;2023-04-25T00:42:03;3.90;;;3.60;;
359;SDS011;168;48.872;9.226;2023-04-25T00:44:31;4.43;;;3.40;;
359;SDS011;168;48.872;9.226;2023-04-25T00:46:59;3.03;;;2.80;;
359;SDS011;168;48.872;9.226;2023-04-25T00:49:33;3.50;;;3.30;;
359;SDS011;168;48.872;9.226;2023-04-25T00:52:00;3.47;;;3.17;;
359;SDS011;168;48.872;9.226;2023-04-25T00:54:29;3.83;;;3.07;;
359;SDS011;168;48.872;9.226;2023-04-25T00:56:57;3.20;;;3.00;;
359;SDS011;168;48.872;9.226;2023-04-25T00:59:26;3.47;;;3.17;;
359;SDS011;168;48.872;9.226;2023-04-25T01:01:55;3.17;;;2.97;;
359;SDS011;168;48.872;9.226;2023-04-25T01:04:22;3.57;;;3.27;;
359;SDS011;168;48.872;9.226;2023-04-25T01:06:50;3.20;;;3.00;;
359;SDS011;168;48.872;9.226;2023-04-25T01:09:19;2.80;;;2.60;;
359;SDS011;168;48.872;9.226;2023-04-25T01:11:49;4.30;;;3.50;;
359;SDS011;168;48.872;9.226;2023-04-25T01:14:16;2.80;;;2.60;;
359;SDS011;168;48.872;9.226;2023-04-25T01:16:44;4.10;;;3.27;;
359;SDS011;168;48.872;9.226;2023-04-25T01:19:11;2.93;;;2.73;;
359;SDS011;168;48.872;9.226;2023-04-25T01:21:45;2.70;;;2.50;;
359;SDS011;168;48.872;9.226;2023-04-25T01:24:12;3.00;;;2.80;;
359;SDS011;168;48.872;9.226;2023-04-25T01:26:41;2.80;;;2.50;;
359;SDS011;168;48.872;9.226;2023-04-25T01:29:15;3.00;;;2.80;;
359;SDS011;168;48.872;9.226;2023-04-25T01:31:42;3.67;;;2.40;;
359;SDS011;168;48.872;9.226;2023-04-25T01:34:10;4.77;;;2.70;;
359;SDS011;168;48.872;9.226;2023-04-25T01:36:38;2.93;;;2.40;;
359;SDS011;168;48.872;9.226;2023-04-25T01:39:07;3.83;;;2.50;;
359;SDS011;168;48.872;9.226;2023-04-25T01:41:36;3.03;;;2.70;;
359;SDS011;168;48.872;9.226;2023-04-25T01:44:03;2.90;;;2.70;;
359;SDS011;168;48.872;9.226;2023-04-25T01:46:32;2.67;;;2.47;;
359;SDS011;168;48.872;9.226;2023-04-25T01:49:00;2.97;;;2.77;;
359;SDS011;168;48.872;9.226;2023-04-25T01:51:29;3.83;;;3.53;;
359;SDS011;168;48.872;9.226;2023-04-25T01:53:57;3.00;;;2.80;;
359;SDS011;168;48.872;9.226;2023-04-25T01:56:27;2.97;;;2.77;;
359;SDS011;168;48.872;9.226;2023-04-25T01:58:57;3.23;;;3.03;;
359;SDS011;168;48.872;9.226;2023-04-25T02:01:24;3.13;;;2.93;;
359;SDS011;168;48.872;9.226;2023-04-25T02:03:52;3.50;;;3.30;;
359;SDS011;168;48.872;9.226;2023-04-25T02:06:19;3.73;;;3.43;;
359;SDS011;168;48.872;9.226;2023-04-25T02:08:47;3.07;;;2.87;;
359;SDS011;168;48.872;9.226;2023-04-25T02:11:14;2.90;;;2.70;;
359;SDS011;168;48.872;9.226;2023-04-25T02:13:43;3.27;;;3.07;;
359;SDS011;168;48.872;9.226;2023-04-25T02:16:10;3.43;;;3.20;;
359;SDS011;168;48.872;9.226;2023-04-25T02:18:38;3.60;;;3.30;;
359;SDS011;168;48.872;9.226;2023-04-25T02:21:06;4.00;;;3.60;;
359;SDS011;168;48.872;9.226;2023-04-25T02:23:33;4.03;;;3.63;;
359;SDS011;168;48.872;9.226;2023-04-25T02:26:01;4.07;;;3.77;;
359;SDS011;168;48.872;9.226;2023-04-25T02:28:28;3.50;;;3.30;;
359;SDS011;168;48.872;9.226;2023-04-25T02:30:57;5.30;;;4.50;;
359;SDS011;168;48.872;9.226;2023-04-25T02:33:25;4.37;;;3.97;;
359;SDS011;168;48.872;9.226;2023-04-25T02:35:52;4.73;;;4.10;;
359;SDS011;168;48.872;9.226;2023-04-25T02:38:20;4.00;;;3.70;;
359;SDS011;168;48.872;9.226;2023-04-25T02:40:47;6.13;;;4.23;;
359;SDS011;168;48.872;9.226;2023-04-25T02:43:14;4.20;;;3.80;;
359;SDS011;168;48.872;9.226;2023-04-25T02:45:42;3.70;;;3.43;;
359;SDS011;168;48.872;9.226;2023-04-25T02:48:11;4.27;;;3.97;;
359;SDS011;168;48.872;9.226;2023-04-25T02:50:39;4.73;;;4.33;;
359;SDS011;168;48.872;9.226;2023-04-25T02:53:07;4.03;;;3.73;;
359;SDS011;168;48.872;9.226;2023-04-25T02:55:35;4.90;;;4.37;;
359;SDS011;168;48.872;9.226;2023-04-25T02:58:02;4.83;;;4.47;;
359;SDS011;168;48.872;9.226;2023-04-25T03:00:29;4.27;;;3.97;;
359;SDS011;168;48.872;9.226;2023-04-25T03:02:57;3.70;;;3.40;;
359;SDS011;168;48.872;9.226;2023-04-25T03:05:26;4.50;;;4.10;;
359;SDS011;168;48.872;9.226;2023-04-25T03:07:54;5.30;;;4.30;;
359;SDS011;168;48.872;9.226;2023-04-25T03:10:22;3.87;;;3.63;;
359;SDS011;168;48.872;9.226;2023-04-25T03:12:49;4.83;;;4.43;;
359;SDS011;168;48.872;9.226;2023-04-25T03:15:17;4.50;;;4.10;;
359;SDS011;168;48.872;9.226;2023-04-25T03:17:44;5.37;;;4.37;;
359;SDS011;168;48.872;9.226;2023-04-25T03:20:11;3.53;;;3.30;;
359;SDS011;168;48.872;9.226;2023-04-25T03:22:41;4.30;;;3.90;;
359;SDS011;168;48.872;9.226;2023-04-25T03:25:08;3.93;;;3.63;;
359;SDS011;168;48.872;9.226;2023-04-25T03:27:35;3.70;;;3.50;;
359;SDS011;168;48.872;9.226;2023-04-25T03:30:03;3.57;;;3.27;;
359;SDS011;168;48.872;9.226;2023-04-25T03:32:32;3.77;;;3.47;;
359;SDS011;168;48.872;9.226;2023-04-25T03:35:00;4.40;;;4.00;;
359;SDS011;168;48.872;9.226;2023-04-25T03:37:28;4.37;;;3.97;;
359;SDS011;168;48.872;9.226;2023-04-25T03:39:57;4.53;;;4.13;;
359;SDS011;168;48.872;9.226;2023-04-25T03:42:25;4.37;;;3.97;;
359;SDS011;168;48.872;9.226;2023-04-25T03:45:02;4.20;;;3.80;;
359;SDS011;168;48.872;9.226;2023-04-25T03:47:30;4.13;;;3.83;;
359;SDS011;168;48.872;9.226;2023-04-25T03:49:57;4.37;;;3.97;;
359;SDS011;168;48.872;9.226;2023-04-25T03:52:27;4.00;;;3.70;;
359;SDS011;168;48.872;9.226;2023-04-25T03:54:54;4.00;;;3.70;;
359;SDS011;168;48.872;9.226;2023-04-25T03:57:25;5.13;;;4.70;;
359;SDS011;168;48.872;9.226;2023-04-25T03:59:53;4.90;;;4.50;;
359;SDS011;168;48.872;9.226;2023-04-25T04:02:20;4.63;;;4.23;;
359;SDS011;168;48.872;9.226;2023-04-25T04:04:48;4.70;;;4.30;;
359;SDS011;168;48.872;9.226;2023-04-25T04:07:15;4.57;;;4.13;;
359;SDS011;168;48.872;9.226;2023-04-25T04:09:43;5.40;;;4.70;;
359;SDS011;168;48.872;9.226;2023-04-25T04:12:10;4.67;;;4.27;;
359;SDS011;168;48.872;9.226;2023-04-25T04:14:39;5.40;;;4.97;;
359;SDS011;168;48.872;9.226;2023-04-25T04:17:07;5.27;;;4.73;;
359;SDS011;168;48.872;9.226;2023-04-25T04:19:34;5.13;;;4.70;;
359;SDS011;168;48.872;9.226;2023-04-25T04:22:01;5.10;;;4.70;;
359;SDS011;168;48.872;9.226;2023-04-25T04:24:29;8.17;;;5.80;;
359;SDS011;168;48.872;9.226;2023-04-25T04:26:56;5.40;;;4.90;;
359;SDS011;168;48.872;9.226;2023-04-25T04:29:24;6.37;;;5.87;;
359;SDS011;168;48.872;9.226;2023-04-25T04:31:53;5.30;;;4.90;;
359;SDS011;168;48.872;9.226;2023-04-25T04:34:20;6.10;;;5.60;;
359;SDS011;168;48.872;9.226;2023-04-25T04:36:50;5.67;;;5.17;;
359;SDS011;168;48.872;9.226;2023-04-25T04:39:20;6.27;;;5.77;;
359;SDS011;168;48.872;9.226;2023-04-25T04:41:47;6.23;;;5.73;;
359;SDS011;168;48.872;9.226;2023-04-25T04:44:16;7.17;;;6.47;;
359;SDS011;168;48.872;9.226;2023-04-25T04:46:43;6.37;;;5.77;;
359;SDS011;168;48.872;9.226;2023-04-25T04:49:13;7.13;;;6.43;;
359;SDS011;168;48.872;9.226;2023-04-25T04:51:40;6.80;;;5.90;;
359;SDS011;168;48.872;9.226;2023-04-25T04:54:09;6.10;;;5.60;;
359;SDS011;168;48.872;9.226;2023-04-25T04:56:37;7.27;;;6.50;;
359;SDS011;168;48.872;9.226;2023-04-25T04:59:04;6.03;;;5.60;;
359;SDS011;168;48.872;9.226;2023-04-25T05:01:32;6.20;;;5.63;;
359;SDS011;168;48.872;9.226;2023-04-25T05:04:01;5.97;;;5.23;;
359;SDS011;168;48.872;9.226;2023-04-25T05:06:30;6.07;;;5.57;;
359;SDS011;168;48.872;9.226;2023-04-25T05:08:58;6.47;;;5.90;;
359;SDS011;168;48.872;9.226;2023-04-25T05:11:26;7.50;;;6.80;;
359;SDS011;168;48.872;9.226;2023-04-25T05:13:54;5.93;;;5.43;;
359;SDS011;168;48.872;9.226;2023-04-25T05:16:21;5.93;;;5.53;;
359;SDS011;168;48.872;9.226;2023-04-25T05:18:59;6.37;;;5.87;;
359;SDS011;168;48.872;9.226;2023-04-25T05:21:44;5.60;;;4.90;;
359;SDS011;168;48.872;9.226;2023-04-25T05:24:12;5.40;;;5.00;;
359;SDS011;168;48.872;9.226;2023-04-25T05:26:40;5.93;;;5.43;;
359;SDS011;168;48.872;9.226;2023-04-25T05:29:11;5.60;;;5.10;;
359;SDS011;168;48.872;9.226;2023-04-25T05:31:39;5.20;;;4.80;;
359;SDS011;168;48.872;9.226;2023-04-25T05:34:06;5.23;;;4.83;;
359;SDS011;168;48.872;9.226;2023-04-25T05:36:34;6.00;;;5.27;;
359;SDS011;168;48.872;9.226;2023-04-25T05:39:03;6.03;;;5.53;;
359;SDS011;168;48.872;9.226;2023-04-25T05:41:31;5.00;;;4.60;;
359;SDS011;168;48.872;9.226;2023-04-25T05:44:01;5.07;;;4.67;;
359;SDS011;168;48.872;9.226;2023-04-25T05:46:32;5.87;;;5.37;;
359;SDS011;168;48.872;9.226;2023-04-25T05:49:28;5.90;;;5.30;;
359;SDS011;168;48.872;9.226;2023-04-25T05:52:15;5.83;;;5.43;;
359;SDS011;168;48.872;9.226;2023-04-25T05:54:47;5.60;;;5.20;;
359;SDS011;168;48.872;9.226;2023-04-25T05:57:25;5.80;;;5.30;;
359;SDS011;168;48.872;9.226;2023-04-25T05:59:55;5.57;;;5.10;;
359;SDS011;168;48.872;9.226;2023-04-25T06:02:22;5.53;;;5.03;;
359;SDS011;168;48.872;9.226;2023-04-25T06:04:52;5.53;;;5.10;;
359;SDS011;168;48.872;9.226;2023-04-25T06:07:24;5.57;;;5.17;;
359;SDS011;168;48.872;9.226;2023-04-25T06:09:57;6.20;;;5.60;;
359;SDS011;168;48.872;9.226;2023-04-25T06:12:25;5.80;;;5.30;;
359;SDS011;168;48.872;9.226;2023-04-25T06:14:53;5.17;;;4.77;;
359;SDS011;168;48.872;9.226;2023-04-25T06:17:23;5.53;;;5.13;;
359;SDS011;168;48.872;9.226;2023-04-25T06:19:54;5.57;;;4.93;;
359;SDS011;168;48.872;9.226;2023-04-25T06:22:21;5.83;;;5.20;;
359;SDS011;168;48.872;9.226;2023-04-25T06:24:57;6.00;;;5.40;;
359;SDS011;168;48.872;9.226;2023-04-25T06:27:35;9.17;;;6.00;;
359;SDS011;168;48.872;9.226;2023-04-25T06:30:11;5.13;;;4.63;;
359;SDS011;168;48.872;9.226;2023-04-25T06:32:38;5.30;;;4.90;;
359;SDS011;168;48.872;9.226;2023-04-25T06:35:06;6.03;;;5.43;;
359;SDS011;168;48.872;9.226;2023-04-25T06:37:52;6.10;;;5.53;;
359;SDS011;168;48.872;9.226;2023-04-25T06:40:22;7.10;;;5.50;;
359;SDS011;168;48.872;9.226;2023-04-25T06:42:50;5.40;;;5.00;;
359;SDS011;168;48.872;9.226;2023-04-25T06:45:21;5.60;;;5.10;;
359;SDS011;168;48.872;9.226;2023-04-25T06:47:55;5.17;;;4.77;;
359;SDS011;168;48.872;9.226;2023-04-25T06:50:22;5.73;;;5.23;;
359;SDS011;168;48.872;9.226;2023-04-25T06:52:50;5.70;;;5.20;;
359;SDS011;168;48.872;9.226;2023-04-25T06:55:39;4.40;;;4.07;;
359;SDS011;168;48.872;9.226;2023-04-25T06:58:06;4.37;;;4.07;;
359;SDS011;168;48.872;9.226;2023-04-25T07:00:37;4.73;;;4.40;;
359;SDS011;168;48.872;9.226;2023-04-25T07:03:05;4.50;;;4.20;;
359;SDS011;168;48.872;9.226;2023-04-25T07:05:33;5.50;;;5.00;;
359;SDS011;168;48.872;9.226;2023-04-25T07:08:03;5.30;;;4.90;;
359;SDS011;168;48.872;9.226;2023-04-25T07:10:33;5.50;;;5.00;;
359;SDS011;168;48.872;9.226;2023-04-25T07:13:00;6.00;;;5.50;;
359;SDS011;168;48.872;9.226;2023-04-25T07:15:31;5.50;;;5.00;;
359;SDS011;168;48.872;9.226;2023-04-25T07:18:07;5.10;;;4.70;;
359;SDS011;168;48.872;9.226;2023-04-25T07:20:43;6.17;;;5.50;;
359;SDS011;168;48.872;9.226;2023-04-25T07:23:19;6.00;;;5.47;;
359;SDS011;168;48.872;9.226;2023-04-25T07:25:48;5.33;;;4.83;;
359;SDS011;168;48.872;9.226;2023-04-25T07:28:16;5.70;;;5.20;;
359;SDS011;168;48.872;9.226;2023-04-25T07:30:50;5.17;;;4.77;;
359;SDS011;168;48.872;9.226;2023-04-25T07:33:28;5.50;;;4.93;;
359;SDS011;168;48.872;9.226;2023-04-25T07:36:05;5.60;;;5.10;;
359;SDS011;168;48.872;9.226;2023-04-25T07:38:33;6.50;;;5.90;;
359;SDS011;168;48.872;9.226;2023-04-25T07:41:02;6.37;;;5.80;;
359;SDS011;168;48.872;9.226;2023-04-25T07:43:29;7.73;;;6.77;;
359;SDS011;168;48.872;9.226;2023-04-25T07:45:57;6.77;;;6.13;;
359;SDS011;168;48.872;9.226;2023-04-25T07:48:24;7.03;;;6.43;;
359;SDS011;168;48.872;9.226;2023-04-25T07:50:51;6.47;;;5.97;;
359;SDS011;168;48.872;9.226;2023-04-25T07:53:19;7.00;;;6.30;;
359;SDS011;168;48.872;9.226;2023-04-25T07:55:49;8.37;;;7.47;;
359;SDS011;168;48.872;9.226;2023-04-25T07:58:22;6.80;;;6.27;;
359;SDS011;168;48.872;9.226;2023-04-25T08:00:50;7.10;;;6.50;;
359;SDS011;168;48.872;9.226;2023-04-25T08:03:20;7.80;;;7.10;;
359;SDS011;168;48.872;9.226;2023-04-25T08:05:48;8.50;;;7.80;;
359;SDS011;168;48.872;9.226;2023-04-25T08:08:15;8.07;;;7.37;;
359;SDS011;168;48.872;9.226;2023-04-25T08:10:43;8.53;;;7.80;;
359;SDS011;168;48.872;9.226;2023-04-25T08:13:10;9.13;;;8.33;;
359;SDS011;168;48.872;9.226;2023-04-25T08:15:39;9.47;;;8.57;;
359;SDS011;168;48.872;9.226;2023-04-25T08:18:06;10.40;;;9.30;;
359;SDS011;168;48.872;9.226;2023-04-25T08:20:33;13.10;;;10.30;;
359;SDS011;168;48.872;9.226;2023-04-25T08:23:01;11.03;;;9.93;;
359;SDS011;168;48.872;9.226;2023-04-25T08:25:28;11.00;;;10.00;;
359;SDS011;168;48.872;9.226;2023-04-25T08:27:56;11.10;;;10.00;;
359;SDS011;168;48.872;9.226;2023-04-25T08:30:25;10.83;;;9.73;;
359;SDS011;168;48.872;9.226;2023-04-25T08:32:53;10.33;;;9.20;;
359;SDS011;168;48.872;9.226;2023-04-25T08:35:21;10.10;;;9.20;;
359;SDS011;168;48.872;9.226;2023-04-25T08:37:48;9.57;;;8.67;;
359;SDS011;168;48.872;9.226;2023-04-25T08:40:16;10.40;;;9.40;;
359;SDS011;168;48.872;9.226;2023-04-25T08:42:51;11.00;;;10.10;;
359;SDS011;168;48.872;9.226;2023-04-25T08:45:20;12.27;;;10.97;;
359;SDS011;168;48.872;9.226;2023-04-25T08:47:48;12.27;;;11.00;;
359;SDS011;168;48.872;9.226;2023-04-25T08:50:19;12.03;;;10.83;;
359;SDS011;168;48.872;9.226;2023-04-25T08:52:49;9.47;;;8.60;;
359;SDS011;168;48.872;9.226;2023-04-25T08:55:18;10.27;;;9.37;;
359;SDS011;168;48.872;9.226;2023-04-25T08:57:47;9.60;;;8.70;;
359;SDS011;168;48.872;9.226;2023-04-25T09:00:15;8.87;;;8.17;;
359;SDS011;168;48.872;9.226;2023-04-25T09:02:43;9.70;;;8.90;;
359;SDS011;168;48.872;9.226;2023-04-25T09:05:11;9.00;;;8.20;;
359;SDS011;168;48.872;9.226;2023-04-25T09:07:41;8.80;;;8.00;;
359;SDS011;168;48.872;9.226;2023-04-25T09:10:08;9.90;;;9.00;;
359;SDS011;168;48.872;9.226;2023-04-25T09:12:36;10.83;;;9.07;;
359;SDS011;168;48.872;9.226;2023-04-25T09:15:04;10.03;;;9.03;;
359;SDS011;168;48.872;9.226;2023-04-25T09:17:33;9.63;;;8.30;;
359;SDS011;168;48.872;9.226;2023-04-25T09:20:07;10.50;;;9.50;;
359;SDS011;168;48.872;9.226;2023-04-25T09:22:35;11.20;;;10.20;;
359;SDS011;168;48.872;9.226;2023-04-25T09:25:07;13.37;;;11.23;;
359;SDS011;168;48.872;9.226;2023-04-25T09:27:35;11.63;;;10.43;;
359;SDS011;168;48.872;9.226;2023-04-25T09:30:03;11.60;;;10.60;;
359;SDS011;168;48.872;9.226;2023-04-25T09:32:31;13.47;;;11.30;;
359;SDS011;168;48.872;9.226;2023-04-25T09:34:59;13.40;;;12.07;;
359;SDS011;168;48.872;9.226;2023-04-25T09:37:26;13.90;;;12.37;;
359;SDS011;168;48.872;9.226;2023-04-25T09:39:55;15.20;;;13.80;;
359;SDS011;168;48.872;9.226;2023-04-25T09:42:26;14.17;;;12.67;;
359;SDS011;168;48.872;9.226;2023-04-25T09:44:57;13.57;;;12.17;;
359;SDS011;168;48.872;9.226;2023-04-25T09:47:28;14.07;;;12.67;;
359;SDS011;168;48.872;9.226;2023-04-25T09:49:55;10.57;;;9.60;;
359;SDS011;168;48.872;9.226;2023-04-25T09:52:23;10.27;;;9.47;;
359;SDS011;168;48.872;9.226;2023-04-25T09:54:51;9.93;;;9.13;;
359;SDS011;168;48.872;9.226;2023-04-25T09:57:19;10.70;;;9.77;;
359;SDS011;168;48.872;9.226;2023-04-25T09:59:50;9.50;;;8.63;;
359;SDS011;168;48.872;9.226;2023-04-25T10:02:19;8.87;;;8.07;;
359;SDS011;168;48.872;9.226;2023-04-25T10:04:48;8.57;;;7.87;;
359;SDS011;168;48.872;9.226;2023-04-25T10:07:18;8.57;;;7.77;;
359;SDS011;168;48.872;9.226;2023-04-25T10:09:47;8.90;;;8.10;;
359;SDS011;168;48.872;9.226;2023-04-25T10:12:16;8.67;;;7.87;;
359;SDS011;168;48.872;9.226;2023-04-25T10:14:44;8.50;;;7.70;;
359;SDS011;168;48.872;9.226;2023-04-25T10:17:13;7.23;;;6.63;;
359;SDS011;168;48.872;9.226;2023-04-25T10:19:41;8.33;;;7.43;;
359;SDS011;168;48.872;9.226;2023-04-25T10:22:11;9.30;;;8.07;;
359;SDS011;168;48.872;9.226;2023-04-25T10:24:43;9.63;;;8.83;;
359;SDS011;168;48.872;9.226;2023-04-25T10:27:11;11.30;;;10.10;;
359;SDS011;168;48.872;9.226;2023-04-25T10:29:39;12.50;;;9.50;;
359;SDS011;168;48.872;9.226;2023-04-25T10:32:08;11.30;;;10.20;;
359;SDS011;168;48.872;9.226;2023-04-25T10:34:41;10.63;;;9.53;;
359;SDS011;168;48.872;9.226;2023-04-25T10:37:14;9.63;;;8.73;;
359;SDS011;168;48.872;9.226;2023-04-25T10:39:42;9.60;;;8.63;;
359;SDS011;168;48.872;9.226;2023-04-25T10:42:09;11.47;;;9.23;;
359;SDS011;168;48.872;9.226;2023-04-25T10:44:38;10.60;;;9.50;;
359;SDS011;168;48.872;9.226;2023-04-25T10:47:06;11.23;;;9.97;;
359;SDS011;168;48.872;9.226;2023-04-25T10:49:35;10.40;;;9.30;;
359;SDS011;168;48.872;9.226;2023-04-25T10:52:15;11.70;;;10.30;;
359;SDS011;168;48.872;9.226;2023-04-25T10:54:52;12.90;;;9.97;;
359;SDS011;168;48.872;9.226;2023-04-25T10:57:29;9.10;;;7.93;;
359;SDS011;168;48.872;9.226;2023-04-25T11:00:06;7.63;;;6.87;;
359;SDS011;168;48.872;9.226;2023-04-25T11:02:36;7.03;;;6.23;;
359;SDS011;168;48.872;9.226;2023-04-25T11:05:05;9.63;;;8.67;;
359;SDS011;168;48.872;9.226;2023-04-25T11:07:43;13.60;;;10.30;;
359;SDS011;168;48.872;9.226;2023-04-25T11:10:15;11.90;;;10.57;;
359;SDS011;168;48.872;9.226;2023-04-25T11:12:43;13.10;;;11.50;;
359;SDS011;168;48.872;9.226;2023-04-25T11:15:12;15.17;;;12.50;;
359;SDS011;168;48.872;9.226;2023-04-25T11:17:39;15.30;;;11.60;;
359;SDS011;168;48.872;9.226;2023-04-25T11:20:08;12.90;;;11.60;;
359;SDS011;168;48.872;9.226;2023-04-25T11:22:40;10.30;;;9.20;;
359;SDS011;168;48.872;9.226;2023-04-25T11:25:11;12.90;;;10.30;;
359;SDS011;168;48.872;9.226;2023-04-25T11:27:49;12.43;;;11.13;;
359;SDS011;168;48.872;9.226;2023-04-25T11:30:16;12.10;;;10.77;;
359;SDS011;168;48.872;9.226;2023-04-25T11:32:45;12.57;;;11.17;;
359;SDS011;168;48.872;9.226;2023-04-25T11:35:12;11.07;;;9.87;;
359;SDS011;168;48.872;9.226;2023-04-25T11:37:42;13.10;;;10.53;;
359;SDS011;168;48.872;9.226;2023-04-25T11:40:10;13.00;;;10.50;;
359;SDS011;168;48.872;9.226;2023-04-25T11:42:38;13.40;;;11.67;;
359;SDS011;168;48.872;9.226;2023-04-25T11:45:06;10.80;;;9.70;;
359;SDS011;168;48.872;9.226;2023-04-25T11:47:35;14.10;;;10.23;;
359;SDS011;168;48.872;9.226;2023-04-25T11:50:03;10.37;;;9.37;;
359;SDS011;168;48.872;9.226;2023-04-25T11:52:35;10.73;;;9.33;;
359;SDS011;168;48.872;9.226;2023-04-25T11:55:08;9.90;;;8.73;;
359;SDS011;168;48.872;9.226;2023-04-25T11:57:37;9.57;;;8.57;;
359;SDS011;168;48.872;9.226;2023-04-25T12:00:07;10.20;;;9.30;;
359;SDS011;168;48.872;9.226;2023-04-25T12:02:36;10.27;;;8.80;;
359;SDS011;168;48.872;9.226;2023-04-25T12:05:06;11.80;;;10.70;;
359;SDS011;168;48.872;9.226;2023-04-25T12:07:34;10.43;;;9.43;;
359;SDS011;168;48.872;9.226;2023-04-25T12:10:04;11.13;;;10.03;;
359;SDS011;168;48.872;9.226;2023-04-25T12:12:34;9.80;;;8.40;;
359;SDS011;168;48.872;9.226;2023-04-25T12:15:09;8.20;;;7.40;;
359;SDS011;168;48.872;9.226;2023-04-25T12:17:40;9.63;;;8.73;;
359;SDS011;168;48.872;9.226;2023-04-25T12:20:09;12.20;;;8.30;;
359;SDS011;168;48.872;9.226;2023-04-25T12:22:40;9.40;;;8.40;;
359;SDS011;168;48.872;9.226;2023-04-25T12:25:10;9.20;;;7.90;;
359;SDS011;168;48.872;9.226;2023-04-25T12:27:39;10.67;;;8.53;;
359;SDS011;168;48.872;9.226;2023-04-25T12:30:09;9.30;;;8.40;;
359;SDS011;168;48.872;9.226;2023-04-25T12:32:37;10.23;;;9.20;;
359;SDS011;168;48.872;9.226;2023-04-25T12:35:05;10.13;;;9.13;;
359;SDS011;168;48.872;9.226;2023-04-25T12:37:33;11.17;;;10.10;;
359;SDS011;168;48.872;9.226;2023-04-25T12:40:00;11.60;;;9.30;;
359;SDS011;168;48.872;9.226;2023-04-25T12:42:29;12.87;;;9.20;;
359;SDS011;168;48.872;9.226;2023-04-25T12:44:58;11.40;;;10.00;;
359;SDS011;168;48.872;9.226;2023-04-25T12:47:26;9.83;;;8.83;;
359;SDS011;168;48.872;9.226;2023-04-25T12:49:53;9.53;;;8.60;;
359;SDS011;168;48.872;9.226;2023-04-25T12:52:20;8.53;;;7.73;;
359;SDS011;168;48.872;9.226;2023-04-25T12:54:47;11.87;;;8.33;;
359;SDS011;168;48.872;9.226;2023-04-25T12:57:15;9.43;;;8.50;;
359;SDS011;168;48.872;9.226;2023-04-25T12:59:42;10.50;;;8.47;;
359;SDS011;168;48.872;9.226;2023-04-25T13:02:11;9.93;;;8.00;;
359;SDS011;168;48.872;9.226;2023-04-25T13:04:38;9.67;;;8.77;;
359;SDS011;168;48.872;9.226;2023-04-25T13:07:06;9.53;;;8.63;;
359;SDS011;168;48.872;9.226;2023-04-25T13:09:33;9.60;;;8.60;;
359;SDS011;168;48.872;9.226;2023-04-25T13:12:00;9.80;;;8.80;;
359;SDS011;168;48.872;9.226;2023-04-25T13:14:28;9.50;;;8.60;;
359;SDS011;168;48.872;9.226;2023-04-25T13:16:55;12.50;;;9.50;;
359;SDS011;168;48.872;9.226;2023-04-25T13:19:24;11.30;;;9.93;;
359;SDS011;168;48.872;9.226;2023-04-25T13:21:51;11.70;;;9.73;;
359;SDS011;168;48.872;9.226;2023-04-25T13:24:19;11.03;;;10.03;;
359;SDS011;168;48.872;9.226;2023-04-25T13:26:46;10.73;;;9.63;;
359;SDS011;168;48.872;9.226;2023-04-25T13:29:13;10.83;;;9.83;;
359;SDS011;168;48.872;9.226;2023-04-25T13:31:41;11.30;;;10.10;;
359;SDS011;168;48.872;9.226;2023-04-25T13:34:08;12.43;;;11.00;;
359;SDS011;168;48.872;9.226;2023-04-25T13:36:39;13.43;;;12.13;;
359;SDS011;168;48.872;9.226;2023-04-25T13:39:06;13.63;;;12.17;;
359;SDS011;168;48.872;9.226;2023-04-25T13:41:33;14.13;;;12.40;;
359;SDS011;168;48.872;9.226;2023-04-25T13:44:01;13.47;;;12.17;;
359;SDS011;168;48.872;9.226;2023-04-25T13:46:29;14.87;;;11.97;;
359;SDS011;168;48.872;9.226;2023-04-25T13:48:57;13.27;;;11.97;;
359;SDS011;168;48.872;9.226;2023-04-25T13:51:24;14.70;;;11.90;;
359;SDS011;168;48.872;9.226;2023-04-25T13:53:53;12.10;;;10.90;;
359;SDS011;168;48.872;9.226;2023-04-25T13:56:20;14.10;;;12.60;;
359;SDS011;168;48.872;9.226;2023-04-25T13:58:48;12.07;;;10.37;;
359;SDS011;168;48.872;9.226;2023-04-25T14:01:17;14.17;;;11.33;;
359;SDS011;168;48.872;9.226;2023-04-25T14:03:45;12.17;;;10.87;;
359;SDS011;168;48.872;9.226;2023-04-25T14:06:13;13.20;;;11.30;;
359;SDS011;168;48.872;9.226;2023-04-25T14:08:51;12.40;;;11.20;;
359;SDS011;168;48.872;9.226;2023-04-25T14:11:21;12.20;;;11.03;;
359;SDS011;168;48.872;9.226;2023-04-25T14:13:48;10.63;;;9.37;;
359;SDS011;168;48.872;9.226;2023-04-25T14:16:16;11.80;;;10.77;;
359;SDS011;168;48.872;9.226;2023-04-25T14:18:44;10.33;;;9.23;;
359;SDS011;168;48.872;9.226;2023-04-25T14:21:20;10.10;;;9.20;;
359;SDS011;168;48.872;9.226;2023-04-25T14:23:49;9.83;;;8.83;;
359;SDS011;168;48.872;9.226;2023-04-25T14:26:19;9.10;;;8.30;;
359;SDS011;168;48.872;9.226;2023-04-25T14:28:48;9.90;;;8.90;;
359;SDS011;168;48.872;9.226;2023-04-25T14:31:16;10.10;;;8.93;;
359;SDS011;168;48.872;9.226;2023-04-25T14:33:44;9.67;;;8.73;;
359;SDS011;168;48.872;9.226;2023-04-25T14:36:11;8.27;;;7.57;;
359;SDS011;168;48.872;9.226;2023-04-25T14:38:39;7.70;;;7.10;;
359;SDS011;168;48.872;9.226;2023-04-25T14:41:07;10.63;;;9.63;;
359;SDS011;168;48.872;9.226;2023-04-25T14:43:36;9.37;;;8.47;;
359;SDS011;168;48.872;9.226;2023-04-25T14:46:05;9.13;;;8.30;;
359;SDS011;168;48.872;9.226;2023-04-25T14:48:33;12.30;;;9.07;;
359;SDS011;168;48.872;9.226;2023-04-25T14:51:00;10.87;;;8.37;;
359;SDS011;168;48.872;9.226;2023-04-25T14:53:28;9.60;;;8.70;;
359;SDS011;168;48.872;9.226;2023-04-25T14:55:56;9.80;;;8.90;;
359;SDS011;168;48.872;9.226;2023-04-25T14:58:23;10.20;;;8.80;;
359;SDS011;168;48.872;9.226;2023-04-25T15:00:52;10.13;;;9.07;;
359;SDS011;168;48.872;9.226;2023-04-25T15:03:19;8.50;;;7.57;;
359;SDS011;168;48.872;9.226;2023-04-25T15:05:47;7.50;;;6.70;;
359;SDS011;168;48.872;9.226;2023-04-25T15:08:14;10.70;;;6.83;;
359;SDS011;168;48.872;9.226;2023-04-25T15:10:41;7.73;;;7.03;;
359;SDS011;168;48.872;9.226;2023-04-25T15:13:09;9.80;;;7.80;;
359;SDS011;168;48.872;9.226;2023-04-25T15:15:37;8.20;;;7.50;;
359;SDS011;168;48.872;9.226;2023-04-25T15:18:06;7.97;;;7.17;;
359;SDS011;168;48.872;9.226;2023-04-25T15:20:34;7.67;;;6.97;;
359;SDS011;168;48.872;9.226;2023-04-25T15:23:03;8.47;;;7.63;;
359;SDS011;168;48.872;9.226;2023-04-25T15:25:31;7.83;;;6.83;;
359;SDS011;168;48.872;9.226;2023-04-25T15:27:58;7.43;;;6.73;;
359;SDS011;168;48.872;9.226;2023-04-25T15:30:26;6.80;;;6.20;;
359;SDS011;168;48.872;9.226;2023-04-25T15:32:53;7.80;;;7.10;;
359;SDS011;168;48.872;9.226;2023-04-25T15:35:22;7.27;;;6.30;;
359;SDS011;168;48.872;9.226;2023-04-25T15:37:49;8.30;;;7.60;;
359;SDS011;168;48.872;9.226;2023-04-25T15:40:17;8.10;;;7.40;;
359;SDS011;168;48.872;9.226;2023-04-25T15:42:45;8.13;;;7.30;;
359;SDS011;168;48.872;9.226;2023-04-25T15:45:13;8.80;;;7.90;;
359;SDS011;168;48.872;9.226;2023-04-25T15:47:42;7.60;;;6.90;;
359;SDS011;168;48.872;9.226;2023-04-25T15:50:11;8.20;;;7.50;;